METAR AND TAF INFORMATION
METAR FOR KSCK
KSCK 211555Z 00000KT 10SM CLR 19/11 A2979 RMK AO2 SLP088 T01890106
KSCK 211455Z 08003KT 10SM CLR 17/10 A2979 RMK AO2 SLP086 T01720100 51010
KSCK 211402Z 30003KT 10SM FEW002 16/10 A2978 RMK AO2 T01560100
KSCK 211355Z 30004KT 10SM CLR 15/10 A2979 RMK AO2 SLP086 T01500100
KSCK 211120Z 2112/2212 30008KT P6SM SKC

 AIRPORT MAP

 RUNWAY INFORMATION
Runway 11L Runway length 10650 ft Runway width 150 ft
Runway elevation 27 ft Runway displaced threshold 990 ft Runway heading 128
Runway 29R Runway length 10650 ft Runway width 150 ft
Runway elevation 32 ft Runway displaced threshold 1000 ft Runway heading 308
Runway 11R Runway length 4454 ft Runway width 75 ft
Runway elevation 25 ft Runway displaced threshold 0 ft Runway heading 128
Runway 29L Runway length 4454 ft Runway width 75 ft
Runway elevation 26 ft Runway displaced threshold 0 ft Runway heading 308

 AIRPORT FREQUENCIES
Type APP Name NORCAL APP Frequency 123.85 MHZ
Type ATIS Name ATIS Frequency 118.25 MHZ
Type CTAF Name CTAF Frequency 120.3 MHZ
Type DEP Name NORCAL DEP Frequency 125.1 MHZ
Type GND Name GND Frequency 121.9 MHZ
Type OPS Name ARNG OPS Frequency 49 MHZ
Type RDO Name RANCHO RDO Frequency 122.65 MHZ
Type TWR Name TWR Frequency 120.3 MHZ
Type UNIC Name UNICOM Frequency 122.95 MHZ

 AIRPORT NEAR NAVIGATION AIDS
Type VORTAC Name Manteca Frequency 116000 KHZ
Type NDB Name Jotly Frequency 271 KHZ

-